createdAt,value
2023-05-07T00:01:02.537Z,5.99
2023-05-07T00:03:32.639Z,5.68
2023-05-07T00:06:02.813Z,6.23
2023-05-07T00:08:32.804Z,6.42
2023-05-07T00:11:02.729Z,6.11
2023-05-07T00:13:36.716Z,6.22
2023-05-07T00:16:06.983Z,6.13
2023-05-07T00:18:36.897Z,6.21
2023-05-07T00:21:07.280Z,5.80
2023-05-07T00:23:37.256Z,5.38
2023-05-07T00:26:07.364Z,5.22
2023-05-07T00:28:40.489Z,5.45
2023-05-07T00:31:10.427Z,5.06
2023-05-07T00:33:40.359Z,5.46
2023-05-07T00:36:10.819Z,4.94
2023-05-07T00:38:40.849Z,5.50
2023-05-07T00:41:10.881Z,5.37
2023-05-07T00:43:43.562Z,5.32
2023-05-07T00:46:14.045Z,5.30
2023-05-07T00:48:44.693Z,5.12
2023-05-07T00:51:15.393Z,5.30
2023-05-07T00:53:45.438Z,4.75
2023-05-07T00:56:16.292Z,5.06
2023-05-07T00:58:48.942Z,4.76
2023-05-07T01:01:19.296Z,5.26
2023-05-07T01:03:49.384Z,5.39
2023-05-07T01:06:22.436Z,5.32
2023-05-07T01:08:54.327Z,5.56
2023-05-07T01:11:24.324Z,5.65
2023-05-07T01:13:58.000Z,5.91
2023-05-07T01:16:28.606Z,5.73
2023-05-07T01:18:58.807Z,5.62
2023-05-07T01:21:30.344Z,5.46
2023-05-07T01:24:05.088Z,5.73
2023-05-07T01:26:36.657Z,5.43
2023-05-07T01:29:06.631Z,5.17
2023-05-07T01:31:39.638Z,5.24
2023-05-07T01:34:14.979Z,4.85
2023-05-07T01:36:48.223Z,4.98
2023-05-07T01:39:21.233Z,5.02
2023-05-07T01:41:51.216Z,4.61
2023-05-07T01:44:23.138Z,5.21
2023-05-07T01:46:53.790Z,4.84
2023-05-07T01:49:23.973Z,4.95
2023-05-07T01:51:55.221Z,5.10
2023-05-07T01:54:31.912Z,5.09
2023-05-07T01:57:03.758Z,5.29
2023-05-07T01:59:33.733Z,5.25
2023-05-07T02:02:03.885Z,5.03
2023-05-07T02:04:35.282Z,5.33
2023-05-07T02:07:06.062Z,4.98
2023-05-07T02:09:38.724Z,5.27
2023-05-07T02:12:08.812Z,4.94
2023-05-07T02:14:38.861Z,4.92
2023-05-07T02:17:09.776Z,5.24
2023-05-07T02:19:39.754Z,5.04
2023-05-07T02:22:09.766Z,5.16
2023-05-07T02:24:42.715Z,4.85
2023-05-07T02:27:12.711Z,4.78
2023-05-07T02:29:43.222Z,5.28
2023-05-07T02:32:13.166Z,5.21
2023-05-07T02:34:43.110Z,4.77
2023-05-07T02:37:13.025Z,5.02
2023-05-07T02:39:45.830Z,5.17
2023-05-07T02:42:15.744Z,4.93
2023-05-07T02:44:45.760Z,5.26
2023-05-07T02:47:16.271Z,5.18
2023-05-07T02:49:47.699Z,5.08
2023-05-07T02:52:17.674Z,5.05
2023-05-07T02:54:50.286Z,5.32
2023-05-07T02:57:20.237Z,5.12
2023-05-07T02:59:50.278Z,5.24
2023-05-07T03:02:21.367Z,5.29
2023-05-07T03:04:51.385Z,5.53
2023-05-07T03:07:21.346Z,5.09
2023-05-07T03:09:54.836Z,5.24
2023-05-07T03:12:24.832Z,5.35
2023-05-07T03:14:54.766Z,5.21
2023-05-07T03:17:25.269Z,5.50
2023-05-07T03:19:55.249Z,5.25
2023-05-07T03:22:25.554Z,5.45
2023-05-07T03:24:58.392Z,5.46
2023-05-07T03:27:28.402Z,5.71
2023-05-07T03:29:58.395Z,5.13
2023-05-07T03:32:28.902Z,5.49
2023-05-07T03:34:59.552Z,5.16
2023-05-07T03:37:29.785Z,5.31
2023-05-07T03:40:03.244Z,5.35
2023-05-07T03:42:36.511Z,5.21
2023-05-07T03:45:07.358Z,5.14
2023-05-07T03:47:38.251Z,5.28
2023-05-07T03:50:10.412Z,5.41
2023-05-07T03:52:40.850Z,5.24
2023-05-07T03:55:14.962Z,5.20
2023-05-07T03:57:51.734Z,5.24
2023-05-07T04:00:23.288Z,5.44
2023-05-07T04:02:53.286Z,5.55
2023-05-07T04:05:29.772Z,5.38
2023-05-07T04:08:03.770Z,5.24
2023-05-07T04:10:46.131Z,5.33
2023-05-07T04:13:17.130Z,5.71
2023-05-07T04:15:47.694Z,5.43
2023-05-07T04:18:19.854Z,5.28
2023-05-07T04:20:51.468Z,5.62
2023-05-07T04:23:21.594Z,5.33
2023-05-07T04:25:55.576Z,5.57
2023-05-07T04:28:43.100Z,5.40
2023-05-07T04:31:13.181Z,5.51
2023-05-07T04:33:44.182Z,5.75
2023-05-07T04:36:17.350Z,6.18
2023-05-07T04:38:53.256Z,6.07
2023-05-07T04:41:26.326Z,6.11
2023-05-07T04:43:56.637Z,6.17
2023-05-07T04:46:28.410Z,5.79
2023-05-07T04:49:01.256Z,6.21
2023-05-07T04:51:33.829Z,6.22
2023-05-07T04:54:03.993Z,6.25
2023-05-07T04:56:37.529Z,6.12
2023-05-07T04:59:07.535Z,5.81
2023-05-07T05:01:38.043Z,5.56
2023-05-07T05:04:08.446Z,5.40
2023-05-07T05:06:38.472Z,5.29
2023-05-07T05:09:09.564Z,5.13
2023-05-07T05:11:43.012Z,4.99
2023-05-07T05:14:12.988Z,5.33
2023-05-07T05:16:43.135Z,5.25
2023-05-07T05:19:13.146Z,5.04
2023-05-07T05:21:44.013Z,5.09
2023-05-07T05:24:14.893Z,5.01
2023-05-07T05:26:47.468Z,5.16
2023-05-07T05:29:17.419Z,5.32
2023-05-07T05:31:47.476Z,5.31
2023-05-07T05:34:18.496Z,5.21
2023-05-07T05:36:48.454Z,5.02
2023-05-07T05:39:19.481Z,5.58
2023-05-07T05:41:52.360Z,5.09
2023-05-07T05:44:23.237Z,5.12
2023-05-07T05:46:55.795Z,5.31
2023-05-07T05:49:26.045Z,5.45
2023-05-07T05:51:56.945Z,5.43
2023-05-07T05:54:28.765Z,5.61
2023-05-07T05:57:01.895Z,5.66
2023-05-07T05:59:31.966Z,5.91
2023-05-07T06:02:02.220Z,5.54
2023-05-07T06:04:32.842Z,5.73
2023-05-07T06:07:03.113Z,5.08
2023-05-07T06:09:33.177Z,5.10
2023-05-07T06:12:05.707Z,4.92
2023-05-07T06:14:35.918Z,4.93
2023-05-07T06:17:06.508Z,5.46
2023-05-07T06:19:36.652Z,5.43
2023-05-07T06:22:07.019Z,5.11
2023-05-07T06:24:38.078Z,4.89
2023-05-07T06:27:13.047Z,5.04
2023-05-07T06:29:43.983Z,4.68
2023-05-07T06:32:18.576Z,4.94
2023-05-07T06:34:49.768Z,4.86
2023-05-07T06:37:19.904Z,4.80
2023-05-07T06:40:06.356Z,4.80
2023-05-07T06:42:41.575Z,4.98
2023-05-07T06:45:40.954Z,4.64
2023-05-07T06:48:12.731Z,4.75
2023-05-07T06:50:56.869Z,5.24
2023-05-07T06:53:27.737Z,4.85
2023-05-07T06:55:59.232Z,4.90
2023-05-07T06:58:32.139Z,4.84
2023-05-07T07:01:02.239Z,4.62
2023-05-07T07:03:32.816Z,4.45
2023-05-07T07:06:03.271Z,4.45
2023-05-07T07:08:33.801Z,4.78
2023-05-07T07:11:03.770Z,5.10
2023-05-07T07:13:36.470Z,5.27
2023-05-07T07:16:07.333Z,4.89
2023-05-07T07:18:37.299Z,4.82
2023-05-07T07:21:08.268Z,4.59
2023-05-07T07:23:38.196Z,4.33
2023-05-07T07:26:09.099Z,4.63
2023-05-07T07:28:46.238Z,5.52
2023-05-07T07:31:19.754Z,8.35
2023-05-07T07:33:53.071Z,5.80
2023-05-07T07:36:27.262Z,7.10
2023-05-07T07:39:01.946Z,6.51
2023-05-07T07:41:31.910Z,7.02
2023-05-07T07:44:04.934Z,8.74
2023-05-07T07:46:34.884Z,4.76
2023-05-07T07:49:05.105Z,4.49
2023-05-07T07:51:36.439Z,4.36
2023-05-07T07:54:07.527Z,4.31
2023-05-07T07:56:39.142Z,4.42
2023-05-07T07:59:14.958Z,4.36
2023-05-07T08:01:45.485Z,4.79
2023-05-07T08:04:15.680Z,4.30
2023-05-07T08:06:46.575Z,4.24
2023-05-07T08:09:16.604Z,4.49
2023-05-07T08:11:47.083Z,4.13
2023-05-07T08:14:20.072Z,4.15
2023-05-07T08:16:51.790Z,4.92
2023-05-07T08:19:22.824Z,4.43
2023-05-07T08:21:53.629Z,4.09
2023-05-07T08:24:24.399Z,4.23
2023-05-07T08:26:55.001Z,5.09
2023-05-07T08:29:27.859Z,4.44
2023-05-07T08:31:57.797Z,4.21
2023-05-07T08:34:27.734Z,4.21
2023-05-07T08:36:59.823Z,4.80
2023-05-07T08:39:30.140Z,5.04
2023-05-07T08:42:05.879Z,4.13
2023-05-07T08:44:42.454Z,4.49
2023-05-07T08:47:13.288Z,4.50
2023-05-07T08:49:44.076Z,4.21
2023-05-07T08:52:16.245Z,4.22
2023-05-07T08:54:48.782Z,4.25
2023-05-07T08:57:21.021Z,4.19
2023-05-07T08:59:53.955Z,4.04
2023-05-07T09:02:24.335Z,4.34
2023-05-07T09:04:54.701Z,4.71
2023-05-07T09:07:26.266Z,5.33
2023-05-07T09:09:58.231Z,5.04
2023-05-07T09:12:29.221Z,4.85
2023-05-07T09:15:03.988Z,4.93
2023-05-07T09:17:36.109Z,4.39
2023-05-07T09:20:10.032Z,4.35
2023-05-07T09:22:41.705Z,4.35
2023-05-07T09:25:15.705Z,4.37
2023-05-07T09:27:46.264Z,4.55
2023-05-07T09:30:19.389Z,4.34
2023-05-07T09:32:49.508Z,4.31
2023-05-07T09:35:25.384Z,4.63
2023-05-07T09:38:04.342Z,4.91
2023-05-07T09:40:36.495Z,5.69
2023-05-07T09:43:15.087Z,5.37
2023-05-07T09:45:57.312Z,5.65
2023-05-07T09:48:31.087Z,9.00
2023-05-07T09:51:06.608Z,5.53
2023-05-07T09:53:38.025Z,4.99
2023-05-07T09:56:09.528Z,5.72
2023-05-07T09:58:41.505Z,5.00
2023-05-07T10:01:16.059Z,5.04
2023-05-07T10:03:48.511Z,6.94
2023-05-07T10:06:18.677Z,5.66
2023-05-07T10:08:49.428Z,5.11
2023-05-07T10:11:20.489Z,4.47
2023-05-07T10:13:52.243Z,4.74
2023-05-07T10:16:25.593Z,4.92
2023-05-07T10:18:56.561Z,4.42
2023-05-07T10:21:31.392Z,4.36
2023-05-07T10:24:11.527Z,4.57
2023-05-07T10:26:42.590Z,4.37
2023-05-07T10:29:20.022Z,4.89
2023-05-07T10:32:03.927Z,5.48
2023-05-07T10:34:42.950Z,5.67
2023-05-07T10:37:14.838Z,4.36
2023-05-07T10:39:45.633Z,4.67
2023-05-07T10:42:18.301Z,4.65
2023-05-07T10:44:53.508Z,4.57
2023-05-07T10:47:33.311Z,4.19
2023-05-07T10:50:27.220Z,4.59
2023-05-07T10:53:25.506Z,4.41
2023-05-07T10:56:32.268Z,5.19
2023-05-07T10:59:43.191Z,4.45
2023-05-07T11:03:03.033Z,5.21
2023-05-07T11:05:43.394Z,4.60
2023-05-07T11:08:56.636Z,4.74
2023-05-07T11:11:48.638Z,4.43
2023-05-07T11:14:50.897Z,4.33
2023-05-07T11:17:35.744Z,4.10
2023-05-07T11:20:10.928Z,4.24
2023-05-07T11:22:52.522Z,4.18
2023-05-07T11:25:29.582Z,6.07
2023-05-07T11:28:23.759Z,6.49
2023-05-07T11:31:04.118Z,5.36
2023-05-07T11:33:34.881Z,4.24
2023-05-07T11:36:09.022Z,4.15
2023-05-07T11:38:47.514Z,4.18
2023-05-07T11:41:17.651Z,4.15
2023-05-07T11:44:01.665Z,4.90
2023-05-07T11:46:32.658Z,4.25
2023-05-07T11:49:04.721Z,3.94
2023-05-07T11:51:35.055Z,3.79
2023-05-07T11:54:09.834Z,4.02
2023-05-07T11:56:39.790Z,4.06
2023-05-07T11:59:09.815Z,3.89
2023-05-07T12:01:40.293Z,3.97
2023-05-07T12:04:10.427Z,3.98
2023-05-07T12:06:41.962Z,4.03
2023-05-07T12:09:14.521Z,3.97
2023-05-07T12:11:49.575Z,3.83
2023-05-07T12:14:19.769Z,4.11
2023-05-07T12:16:50.598Z,3.92
2023-05-07T12:19:21.237Z,4.34
2023-05-07T12:21:52.098Z,3.81
2023-05-07T12:24:24.724Z,5.74
2023-05-07T12:26:54.862Z,4.06
2023-05-07T12:29:25.664Z,3.68
2023-05-07T12:31:55.886Z,3.89
2023-05-07T12:34:26.942Z,5.20
2023-05-07T12:36:57.268Z,4.15
2023-05-07T12:39:29.840Z,4.37
2023-05-07T12:42:02.257Z,4.78
2023-05-07T12:44:35.505Z,4.04
2023-05-07T12:47:06.498Z,3.96
2023-05-07T12:49:40.013Z,3.75
2023-05-07T12:52:10.432Z,4.20
2023-05-07T12:54:43.669Z,4.17
2023-05-07T12:57:14.058Z,4.01
2023-05-07T12:59:45.194Z,4.16
2023-05-07T13:02:15.240Z,3.78
2023-05-07T13:04:45.578Z,3.89
2023-05-07T13:07:15.604Z,4.10
2023-05-07T13:09:49.386Z,3.90
2023-05-07T13:12:19.360Z,3.99
2023-05-07T13:14:49.285Z,3.90
2023-05-07T13:17:20.074Z,3.87
2023-05-07T13:19:50.174Z,4.31
2023-05-07T13:22:20.165Z,4.65
2023-05-07T13:24:52.739Z,4.60
2023-05-07T13:27:22.923Z,4.92
2023-05-07T13:29:52.897Z,4.21
2023-05-07T13:32:22.872Z,4.07
2023-05-07T13:34:52.999Z,4.73
2023-05-07T13:37:22.957Z,4.67
2023-05-07T13:39:55.587Z,4.64
2023-05-07T13:42:25.577Z,4.19
2023-05-07T13:44:55.627Z,3.67
2023-05-07T13:47:25.647Z,3.78
2023-05-07T13:49:55.730Z,4.19
2023-05-07T13:52:25.769Z,4.01
2023-05-07T13:54:59.865Z,3.83
2023-05-07T13:57:29.887Z,3.68
2023-05-07T13:59:59.890Z,3.68
2023-05-07T14:02:29.894Z,3.74
2023-05-07T14:04:59.953Z,3.62
2023-05-07T14:07:30.155Z,3.77
2023-05-07T14:10:02.745Z,4.51
2023-05-07T14:12:33.780Z,5.32
2023-05-07T14:15:03.832Z,5.42
2023-05-07T14:17:34.133Z,6.19
2023-05-07T14:20:04.151Z,6.43
2023-05-07T14:22:34.218Z,6.24
2023-05-07T14:25:11.297Z,5.88
2023-05-07T14:27:41.359Z,5.70
2023-05-07T14:30:12.462Z,4.73
2023-05-07T14:32:42.458Z,4.39
2023-05-07T14:35:12.946Z,4.58
2023-05-07T14:37:43.135Z,4.51
2023-05-07T14:40:16.553Z,4.09
2023-05-07T14:42:46.729Z,3.02
2023-05-07T14:45:16.731Z,2.52
2023-05-07T14:47:46.860Z,2.24
2023-05-07T14:50:16.927Z,2.73
2023-05-07T14:52:46.879Z,2.65
2023-05-07T14:55:19.667Z,2.46
2023-05-07T14:57:50.117Z,2.39
2023-05-07T15:00:20.553Z,2.33
2023-05-07T15:02:50.716Z,2.42
2023-05-07T15:05:21.325Z,2.27
2023-05-07T15:07:51.362Z,2.44
2023-05-07T15:10:24.089Z,2.49
2023-05-07T15:12:54.129Z,2.43
2023-05-07T15:15:24.450Z,2.57
2023-05-07T15:17:55.760Z,2.53
2023-05-07T15:20:25.748Z,2.86
2023-05-07T15:22:55.811Z,2.95
2023-05-07T15:25:28.809Z,3.26
2023-05-07T15:27:58.898Z,3.71
2023-05-07T15:30:28.947Z,3.35
2023-05-07T15:32:59.340Z,2.75
2023-05-07T15:35:29.876Z,2.64
2023-05-07T15:38:00.027Z,2.72
2023-05-07T15:40:33.825Z,2.90
2023-05-07T15:43:04.355Z,2.33
2023-05-07T15:45:34.639Z,2.50
2023-05-07T15:48:04.697Z,2.66
2023-05-07T15:50:34.742Z,3.28
2023-05-07T15:53:05.076Z,3.67
2023-05-07T15:55:38.118Z,3.83
2023-05-07T15:58:08.199Z,3.92
2023-05-07T16:00:40.914Z,3.70
2023-05-07T16:03:11.178Z,3.71
2023-05-07T16:05:41.597Z,4.52
2023-05-07T16:08:11.578Z,3.77
2023-05-07T16:10:44.186Z,3.41
2023-05-07T16:13:14.433Z,3.21
2023-05-07T16:15:44.658Z,3.38
2023-05-07T16:18:16.340Z,3.53
2023-05-07T16:20:46.676Z,3.12
2023-05-07T16:23:16.938Z,3.19
2023-05-07T16:25:49.523Z,3.59
2023-05-07T16:28:19.662Z,3.59
2023-05-07T16:30:49.653Z,3.65
2023-05-07T16:33:20.111Z,3.49
2023-05-07T16:35:54.784Z,2.95
2023-05-07T16:38:24.830Z,3.41
2023-05-07T16:40:57.389Z,3.42
2023-05-07T16:43:27.563Z,3.25
2023-05-07T16:45:57.507Z,2.93
2023-05-07T16:48:29.118Z,3.64
2023-05-07T16:51:00.843Z,3.46
2023-05-07T16:53:30.788Z,3.11
2023-05-07T16:56:07.708Z,3.21
2023-05-07T16:58:37.701Z,3.72
2023-05-07T17:01:07.763Z,4.01
2023-05-07T17:03:37.826Z,3.68
2023-05-07T17:06:13.146Z,3.06
2023-05-07T17:08:43.358Z,3.16
2023-05-07T17:11:15.975Z,2.88
2023-05-07T17:13:45.919Z,2.95
2023-05-07T17:16:15.962Z,3.16
2023-05-07T17:18:45.937Z,2.91
2023-05-07T17:21:15.889Z,3.55
2023-05-07T17:23:45.944Z,3.26
2023-05-07T17:26:19.529Z,3.74
2023-05-07T17:28:49.765Z,3.73
2023-05-07T17:31:19.992Z,3.70
2023-05-07T17:33:49.945Z,4.65
2023-05-07T17:36:19.968Z,4.56
2023-05-07T17:38:49.963Z,3.46
2023-05-07T17:41:22.835Z,3.65
2023-05-07T17:43:52.825Z,3.76
2023-05-07T17:46:23.051Z,3.80
2023-05-07T17:48:53.248Z,3.84
2023-05-07T17:51:23.372Z,4.26
2023-05-07T17:53:53.397Z,4.09
2023-05-07T17:56:26.086Z,3.98
2023-05-07T17:58:59.288Z,4.07
2023-05-07T18:01:29.734Z,3.87
2023-05-07T18:04:00.675Z,3.65
2023-05-07T18:06:30.733Z,3.66
2023-05-07T18:09:00.738Z,3.68
2023-05-07T18:11:34.141Z,3.82
2023-05-07T18:14:04.171Z,3.74
2023-05-07T18:16:34.284Z,3.83
2023-05-07T18:19:05.062Z,3.83
2023-05-07T18:21:35.152Z,3.81
2023-05-07T18:24:05.116Z,4.18
2023-05-07T18:26:37.761Z,4.44
2023-05-07T18:29:07.787Z,4.93
2023-05-07T18:31:38.175Z,5.05
2023-05-07T18:34:10.343Z,5.02
2023-05-07T18:36:40.570Z,5.60
2023-05-07T18:39:11.209Z,6.20
2023-05-07T18:41:45.366Z,5.69
2023-05-07T18:44:15.578Z,5.48
2023-05-07T18:46:48.030Z,5.18
2023-05-07T18:49:18.181Z,5.36
2023-05-07T18:51:48.267Z,5.53
2023-05-07T18:54:18.282Z,6.27
2023-05-07T18:56:50.912Z,5.84
2023-05-07T18:59:21.028Z,5.76
2023-05-07T19:01:51.176Z,5.54
2023-05-07T19:04:21.281Z,5.51
2023-05-07T19:06:51.350Z,5.21
2023-05-07T19:09:21.426Z,5.33
2023-05-07T19:11:54.079Z,5.23
2023-05-07T19:14:24.045Z,5.48
2023-05-07T19:16:54.038Z,4.98
2023-05-07T19:19:24.055Z,5.20
2023-05-07T19:21:54.252Z,4.94
2023-05-07T19:24:24.254Z,5.00
2023-05-07T19:26:57.240Z,5.24
2023-05-07T19:29:27.336Z,4.90
2023-05-07T19:31:57.515Z,4.25
2023-05-07T19:34:27.586Z,4.60
2023-05-07T19:36:57.573Z,4.39
2023-05-07T19:39:27.903Z,4.03
2023-05-07T19:42:00.574Z,4.28
2023-05-07T19:44:30.628Z,4.28
2023-05-07T19:47:02.520Z,4.33
2023-05-07T19:49:32.527Z,4.34
2023-05-07T19:52:02.534Z,4.21
2023-05-07T19:54:32.690Z,4.33
2023-05-07T19:57:05.294Z,4.41
2023-05-07T19:59:35.325Z,4.40
2023-05-07T20:02:05.443Z,4.29
2023-05-07T20:04:38.285Z,4.71
2023-05-07T20:07:08.769Z,4.55
2023-05-07T20:09:38.880Z,4.74
2023-05-07T20:12:11.624Z,4.88
2023-05-07T20:14:42.172Z,4.69
2023-05-07T20:17:12.189Z,5.08
2023-05-07T20:19:42.155Z,5.45
2023-05-07T20:22:12.107Z,6.80
2023-05-07T20:24:42.433Z,6.88
2023-05-07T20:27:16.121Z,6.76
2023-05-07T20:29:46.075Z,7.69
2023-05-07T20:32:16.051Z,7.39
2023-05-07T20:34:47.827Z,7.60
2023-05-07T20:37:17.976Z,6.77
2023-05-07T20:39:50.399Z,7.27
2023-05-07T20:42:22.982Z,7.23
2023-05-07T20:44:52.982Z,6.95
2023-05-07T20:47:23.050Z,7.09
2023-05-07T20:49:53.670Z,7.96
2023-05-07T20:52:23.783Z,7.31
2023-05-07T20:54:53.949Z,6.88
2023-05-07T20:57:26.526Z,7.70
2023-05-07T20:59:56.555Z,7.36
2023-05-07T21:02:26.534Z,7.67
2023-05-07T21:04:56.514Z,7.79
2023-05-07T21:07:26.556Z,7.60
2023-05-07T21:09:56.598Z,7.43
2023-05-07T21:12:29.134Z,7.32
2023-05-07T21:14:59.909Z,7.62
2023-05-07T21:17:31.951Z,7.23
2023-05-07T21:20:02.493Z,7.13
2023-05-07T21:22:32.707Z,7.40
2023-05-07T21:25:02.890Z,7.44
2023-05-07T21:27:36.005Z,6.97
2023-05-07T21:30:06.064Z,6.97
2023-05-07T21:32:37.388Z,7.12
2023-05-07T21:35:08.458Z,6.83
2023-05-07T21:37:38.416Z,7.24
2023-05-07T21:40:10.418Z,7.04
2023-05-07T21:42:43.085Z,6.68
2023-05-07T21:45:14.662Z,6.75
2023-05-07T21:47:44.601Z,6.47
2023-05-07T21:50:15.462Z,6.48
2023-05-07T21:52:45.859Z,6.55
2023-05-07T21:55:15.862Z,6.45
2023-05-07T21:58:01.155Z,6.91
2023-05-07T22:00:34.873Z,6.41
2023-05-07T22:03:04.895Z,6.85
2023-05-07T22:05:34.963Z,6.52
2023-05-07T22:08:04.891Z,6.64
2023-05-07T22:10:34.938Z,6.58
2023-05-07T22:13:07.719Z,6.87
2023-05-07T22:15:49.102Z,6.71
2023-05-07T22:18:23.481Z,7.16
2023-05-07T22:20:54.494Z,7.58
2023-05-07T22:23:24.395Z,6.83
2023-05-07T22:25:54.474Z,7.11
2023-05-07T22:28:27.126Z,7.00
2023-05-07T22:30:57.240Z,8.16
2023-05-07T22:33:27.336Z,8.20
2023-05-07T22:35:57.389Z,7.60
2023-05-07T22:38:27.344Z,7.70
2023-05-07T22:40:57.262Z,7.28
2023-05-07T22:43:29.790Z,7.34
2023-05-07T22:46:04.091Z,7.34
2023-05-07T22:48:35.626Z,6.85
2023-05-07T22:51:05.595Z,6.97
2023-05-07T22:53:35.522Z,6.89
2023-05-07T22:56:08.494Z,6.63
2023-05-07T22:58:41.153Z,6.69
2023-05-07T23:01:15.555Z,6.43
2023-05-07T23:03:45.769Z,6.44
2023-05-07T23:06:15.910Z,6.71
2023-05-07T23:08:45.850Z,6.52
2023-05-07T23:11:15.748Z,6.06
2023-05-07T23:13:48.378Z,6.31
2023-05-07T23:16:18.401Z,6.01
2023-05-07T23:18:48.554Z,5.85
2023-05-07T23:21:18.461Z,5.97
2023-05-07T23:23:48.388Z,6.12
2023-05-07T23:26:18.401Z,6.22
2023-05-07T23:28:51.040Z,6.36
2023-05-07T23:31:20.957Z,6.60
2023-05-07T23:33:51.346Z,6.51
2023-05-07T23:36:21.395Z,7.14
2023-05-07T23:38:51.453Z,6.99
2023-05-07T23:41:21.398Z,7.44
2023-05-07T23:43:53.959Z,7.09
2023-05-07T23:46:24.895Z,7.28
2023-05-07T23:48:54.831Z,7.02
2023-05-07T23:51:24.747Z,7.44
2023-05-07T23:53:54.800Z,6.98
2023-05-07T23:56:24.764Z,7.22
2023-05-07T23:58:57.368Z,7.55
